sensor_id;sensor_type;location;lat;lon;timestamp;temperature;humidity
42663;DHT22;44330;51.360;6.686;2023-06-19T00:00:28;22.50;68.10
42663;DHT22;44330;51.360;6.686;2023-06-19T00:02:55;22.50;68.50
42663;DHT22;44330;51.360;6.686;2023-06-19T00:05:21;22.50;66.50
42663;DHT22;44330;51.360;6.686;2023-06-19T00:07:48;22.50;79.00
42663;DHT22;44330;51.360;6.686;2023-06-19T00:10:14;22.40;79.30
42663;DHT22;44330;51.360;6.686;2023-06-19T00:12:39;22.50;80.90
42663;DHT22;44330;51.360;6.686;2023-06-19T00:15:05;22.50;79.90
42663;DHT22;44330;51.360;6.686;2023-06-19T00:17:30;22.40;81.50
42663;DHT22;44330;51.360;6.686;2023-06-19T00:19:56;22.40;84.60
42663;DHT22;44330;51.360;6.686;2023-06-19T00:22:21;22.40;81.60
42663;DHT22;44330;51.360;6.686;2023-06-19T00:24:47;22.20;89.70
42663;DHT22;44330;51.360;6.686;2023-06-19T00:27:12;22.30;90.70
42663;DHT22;44330;51.360;6.686;2023-06-19T00:29:38;22.20;98.00
42663;DHT22;44330;51.360;6.686;2023-06-19T00:32:04;22.10;92.70
42663;DHT22;44330;51.360;6.686;2023-06-19T00:34:29;22.10;94.80
42663;DHT22;44330;51.360;6.686;2023-06-19T00:36:55;22.10;98.80
42663;DHT22;44330;51.360;6.686;2023-06-19T00:39:30;22.00;98.20
42663;DHT22;44330;51.360;6.686;2023-06-19T00:41:55;22.00;99.00
42663;DHT22;44330;51.360;6.686;2023-06-19T00:44:21;22.00;99.90
42663;DHT22;44330;51.360;6.686;2023-06-19T00:46:47;22.00;98.50
42663;DHT22;44330;51.360;6.686;2023-06-19T00:49:16;22.00;99.90
42663;DHT22;44330;51.360;6.686;2023-06-19T00:51:41;22.00;99.90
42663;DHT22;44330;51.360;6.686;2023-06-19T00:54:07;22.00;99.90
42663;DHT22;44330;51.360;6.686;2023-06-19T00:56:32;21.90;99.90
42663;DHT22;44330;51.360;6.686;2023-06-19T00:58:59;21.90;99.90
42663;DHT22;44330;51.360;6.686;2023-06-19T01:01:25;21.80;99.90
42663;DHT22;44330;51.360;6.686;2023-06-19T01:03:51;21.80;99.90
42663;DHT22;44330;51.360;6.686;2023-06-19T01:06:21;21.70;99.90
42663;DHT22;44330;51.360;6.686;2023-06-19T01:08:53;21.70;99.90
42663;DHT22;44330;51.360;6.686;2023-06-19T01:11:21;21.60;99.90
42663;DHT22;44330;51.360;6.686;2023-06-19T01:13:53;21.60;99.90
42663;DHT22;44330;51.360;6.686;2023-06-19T01:16:21;21.60;99.90
42663;DHT22;44330;51.360;6.686;2023-06-19T01:18:47;21.50;99.90
42663;DHT22;44330;51.360;6.686;2023-06-19T01:21:14;21.40;99.90
42663;DHT22;44330;51.360;6.686;2023-06-19T01:23:40;21.50;99.90
42663;DHT22;44330;51.360;6.686;2023-06-19T01:26:06;21.20;99.90
42663;DHT22;44330;51.360;6.686;2023-06-19T01:28:33;21.20;99.90
42663;DHT22;44330;51.360;6.686;2023-06-19T01:30:58;21.20;99.90
42663;DHT22;44330;51.360;6.686;2023-06-19T01:33:26;21.20;99.90
42663;DHT22;44330;51.360;6.686;2023-06-19T01:35:53;21.20;99.90
42663;DHT22;44330;51.360;6.686;2023-06-19T01:38:19;21.10;99.90
42663;DHT22;44330;51.360;6.686;2023-06-19T01:40:46;21.00;99.90
42663;DHT22;44330;51.360;6.686;2023-06-19T01:43:12;21.00;99.90
42663;DHT22;44330;51.360;6.686;2023-06-19T01:45:37;21.00;99.90
42663;DHT22;44330;51.360;6.686;2023-06-19T01:48:03;20.90;99.90
42663;DHT22;44330;51.360;6.686;2023-06-19T01:50:29;20.90;99.90
42663;DHT22;44330;51.360;6.686;2023-06-19T01:52:55;20.90;99.90
42663;DHT22;44330;51.360;6.686;2023-06-19T01:55:20;20.90;99.90
42663;DHT22;44330;51.360;6.686;2023-06-19T01:57:46;20.80;99.90
42663;DHT22;44330;51.360;6.686;2023-06-19T02:00:12;20.80;99.90
42663;DHT22;44330;51.360;6.686;2023-06-19T02:02:37;20.70;99.90
42663;DHT22;44330;51.360;6.686;2023-06-19T02:05:03;20.70;99.90
42663;DHT22;44330;51.360;6.686;2023-06-19T02:07:28;20.70;1.00
42663;DHT22;44330;51.360;6.686;2023-06-19T02:09:54;20.60;1.00
42663;DHT22;44330;51.360;6.686;2023-06-19T02:12:19;20.70;34.10
42663;DHT22;44330;51.360;6.686;2023-06-19T02:14:45;20.70;37.00
42663;DHT22;44330;51.360;6.686;2023-06-19T02:17:10;20.70;22.70
42663;DHT22;44330;51.360;6.686;2023-06-19T02:19:36;20.70;70.20
42663;DHT22;44330;51.360;6.686;2023-06-19T02:22:01;20.80;99.90
42663;DHT22;44330;51.360;6.686;2023-06-19T02:24:27;20.80;85.70
42663;DHT22;44330;51.360;6.686;2023-06-19T02:26:52;20.80;77.10
42663;DHT22;44330;51.360;6.686;2023-06-19T02:29:18;20.90;29.70
42663;DHT22;44330;51.360;6.686;2023-06-19T02:31:44;20.80;10.70
42663;DHT22;44330;51.360;6.686;2023-06-19T02:34:09;21.00;31.30
42663;DHT22;44330;51.360;6.686;2023-06-19T02:36:35;21.00;14.80
42663;DHT22;44330;51.360;6.686;2023-06-19T02:39:01;21.00;1.00
42663;DHT22;44330;51.360;6.686;2023-06-19T02:41:26;21.10;55.80
42663;DHT22;44330;51.360;6.686;2023-06-19T02:43:52;21.10;49.20
42663;DHT22;44330;51.360;6.686;2023-06-19T02:46:17;21.20;38.50
42663;DHT22;44330;51.360;6.686;2023-06-19T02:48:43;21.20;1.00
42663;DHT22;44330;51.360;6.686;2023-06-19T02:51:08;21.20;99.90
42663;DHT22;44330;51.360;6.686;2023-06-19T02:53:34;21.40;99.90
42663;DHT22;44330;51.360;6.686;2023-06-19T02:55:59;21.50;99.90
42663;DHT22;44330;51.360;6.686;2023-06-19T02:58:25;21.50;99.90
42663;DHT22;44330;51.360;6.686;2023-06-19T03:00:52;21.50;99.90
42663;DHT22;44330;51.360;6.686;2023-06-19T03:03:17;21.50;99.90
42663;DHT22;44330;51.360;6.686;2023-06-19T03:05:43;21.40;99.90
42663;DHT22;44330;51.360;6.686;2023-06-19T03:08:08;21.40;99.90
42663;DHT22;44330;51.360;6.686;2023-06-19T03:10:34;21.30;99.90
42663;DHT22;44330;51.360;6.686;2023-06-19T03:13:00;21.40;99.90
42663;DHT22;44330;51.360;6.686;2023-06-19T03:15:25;21.40;99.90
42663;DHT22;44330;51.360;6.686;2023-06-19T03:17:54;21.40;99.90
42663;DHT22;44330;51.360;6.686;2023-06-19T03:20:19;21.40;99.90
42663;DHT22;44330;51.360;6.686;2023-06-19T03:22:45;21.40;99.90
42663;DHT22;44330;51.360;6.686;2023-06-19T03:25:11;21.40;99.90
42663;DHT22;44330;51.360;6.686;2023-06-19T03:27:37;21.40;99.90
42663;DHT22;44330;51.360;6.686;2023-06-19T03:30:03;21.20;99.90
42663;DHT22;44330;51.360;6.686;2023-06-19T03:32:32;21.30;99.90
42663;DHT22;44330;51.360;6.686;2023-06-19T03:34:57;21.30;99.90
42663;DHT22;44330;51.360;6.686;2023-06-19T03:37:23;21.20;99.90
42663;DHT22;44330;51.360;6.686;2023-06-19T03:39:48;21.20;99.90
42663;DHT22;44330;51.360;6.686;2023-06-19T03:42:14;21.10;99.90
42663;DHT22;44330;51.360;6.686;2023-06-19T03:44:39;21.00;99.90
42663;DHT22;44330;51.360;6.686;2023-06-19T03:47:06;20.90;1.00
42663;DHT22;44330;51.360;6.686;2023-06-19T03:49:32;20.90;4.20
42663;DHT22;44330;51.360;6.686;2023-06-19T03:51:57;21.00;1.00
42663;DHT22;44330;51.360;6.686;2023-06-19T03:54:22;20.90;3.20
42663;DHT22;44330;51.360;6.686;2023-06-19T03:56:48;21.00;49.00
42663;DHT22;44330;51.360;6.686;2023-06-19T03:59:14;20.90;65.40
42663;DHT22;44330;51.360;6.686;2023-06-19T04:01:45;20.90;99.90
42663;DHT22;44330;51.360;6.686;2023-06-19T04:04:11;20.80;99.90
42663;DHT22;44330;51.360;6.686;2023-06-19T04:06:36;20.80;99.90
42663;DHT22;44330;51.360;6.686;2023-06-19T04:09:03;20.80;99.90
42663;DHT22;44330;51.360;6.686;2023-06-19T04:11:30;20.70;99.90
42663;DHT22;44330;51.360;6.686;2023-06-19T04:13:55;20.60;1.00
42663;DHT22;44330;51.360;6.686;2023-06-19T04:16:20;20.60;99.90
42663;DHT22;44330;51.360;6.686;2023-06-19T04:18:46;20.50;99.90
42663;DHT22;44330;51.360;6.686;2023-06-19T04:21:12;20.50;1.00
42663;DHT22;44330;51.360;6.686;2023-06-19T04:23:37;20.60;3.70
42663;DHT22;44330;51.360;6.686;2023-06-19T04:26:03;20.50;99.90
42663;DHT22;44330;51.360;6.686;2023-06-19T04:28:28;20.40;99.90
42663;DHT22;44330;51.360;6.686;2023-06-19T04:30:54;20.50;99.90
42663;DHT22;44330;51.360;6.686;2023-06-19T04:33:26;20.40;99.90
42663;DHT22;44330;51.360;6.686;2023-06-19T04:35:51;20.40;99.90
42663;DHT22;44330;51.360;6.686;2023-06-19T04:38:17;20.40;99.90
42663;DHT22;44330;51.360;6.686;2023-06-19T04:40:42;20.40;1.00
42663;DHT22;44330;51.360;6.686;2023-06-19T04:43:08;20.40;1.00
42663;DHT22;44330;51.360;6.686;2023-06-19T04:45:34;20.40;99.90
42663;DHT22;44330;51.360;6.686;2023-06-19T04:47:59;20.40;99.90
42663;DHT22;44330;51.360;6.686;2023-06-19T04:50:28;20.30;1.00
42663;DHT22;44330;51.360;6.686;2023-06-19T04:52:53;20.40;99.90
42663;DHT22;44330;51.360;6.686;2023-06-19T04:55:19;20.30;99.90
42663;DHT22;44330;51.360;6.686;2023-06-19T04:57:44;20.40;95.20
42663;DHT22;44330;51.360;6.686;2023-06-19T05:00:10;20.40;99.90
42663;DHT22;44330;51.360;6.686;2023-06-19T05:02:35;20.40;99.90
42663;DHT22;44330;51.360;6.686;2023-06-19T05:05:01;20.40;99.90
42663;DHT22;44330;51.360;6.686;2023-06-19T05:07:29;20.40;99.90
42663;DHT22;44330;51.360;6.686;2023-06-19T05:09:56;20.40;1.00
42663;DHT22;44330;51.360;6.686;2023-06-19T05:12:21;20.40;30.80
42663;DHT22;44330;51.360;6.686;2023-06-19T05:14:46;20.40;37.90
42663;DHT22;44330;51.360;6.686;2023-06-19T05:17:12;20.50;99.90
42663;DHT22;44330;51.360;6.686;2023-06-19T05:19:37;20.60;1.00
42663;DHT22;44330;51.360;6.686;2023-06-19T05:22:03;20.60;99.90
42663;DHT22;44330;51.360;6.686;2023-06-19T05:24:29;20.70;99.90
42663;DHT22;44330;51.360;6.686;2023-06-19T05:26:54;20.80;99.90
42663;DHT22;44330;51.360;6.686;2023-06-19T05:29:20;20.90;1.00
42663;DHT22;44330;51.360;6.686;2023-06-19T05:31:45;21.00;99.90
42663;DHT22;44330;51.360;6.686;2023-06-19T05:34:10;21.00;99.90
42663;DHT22;44330;51.360;6.686;2023-06-19T05:36:36;21.00;99.90
42663;DHT22;44330;51.360;6.686;2023-06-19T05:39:01;21.00;99.90
42663;DHT22;44330;51.360;6.686;2023-06-19T05:41:27;20.90;99.90
42663;DHT22;44330;51.360;6.686;2023-06-19T05:43:52;21.00;99.90
42663;DHT22;44330;51.360;6.686;2023-06-19T05:46:18;21.10;99.90
42663;DHT22;44330;51.360;6.686;2023-06-19T05:48:43;21.10;70.20
42663;DHT22;44330;51.360;6.686;2023-06-19T05:51:09;21.10;61.40
42663;DHT22;44330;51.360;6.686;2023-06-19T05:53:34;21.20;8.20
42663;DHT22;44330;51.360;6.686;2023-06-19T05:56:00;21.20;47.10
42663;DHT22;44330;51.360;6.686;2023-06-19T05:58:26;21.30;1.00
42663;DHT22;44330;51.360;6.686;2023-06-19T06:00:51;21.20;1.00
42663;DHT22;44330;51.360;6.686;2023-06-19T06:03:23;21.20;95.30
42663;DHT22;44330;51.360;6.686;2023-06-19T06:05:49;21.20;99.90
42663;DHT22;44330;51.360;6.686;2023-06-19T06:08:15;21.20;27.00
42663;DHT22;44330;51.360;6.686;2023-06-19T06:10:40;21.20;81.30
42663;DHT22;44330;51.360;6.686;2023-06-19T06:13:06;21.20;84.90
42663;DHT22;44330;51.360;6.686;2023-06-19T06:15:31;21.10;99.90
42663;DHT22;44330;51.360;6.686;2023-06-19T06:17:57;21.10;99.90
42663;DHT22;44330;51.360;6.686;2023-06-19T06:20:22;21.10;99.90
42663;DHT22;44330;51.360;6.686;2023-06-19T06:22:48;21.20;99.90
42663;DHT22;44330;51.360;6.686;2023-06-19T06:25:13;21.10;99.90
42663;DHT22;44330;51.360;6.686;2023-06-19T06:27:39;21.20;92.90
42663;DHT22;44330;51.360;6.686;2023-06-19T06:30:05;21.30;99.90
42663;DHT22;44330;51.360;6.686;2023-06-19T06:32:30;21.20;99.90
42663;DHT22;44330;51.360;6.686;2023-06-19T06:34:56;21.20;99.90
42663;DHT22;44330;51.360;6.686;2023-06-19T06:37:22;21.10;99.90
42663;DHT22;44330;51.360;6.686;2023-06-19T06:39:48;21.10;1.00
42663;DHT22;44330;51.360;6.686;2023-06-19T06:42:14;21.10;99.90
42663;DHT22;44330;51.360;6.686;2023-06-19T06:44:40;21.10;1.00
42663;DHT22;44330;51.360;6.686;2023-06-19T06:47:05;21.10;1.00
42663;DHT22;44330;51.360;6.686;2023-06-19T06:49:30;21.10;99.90
42663;DHT22;44330;51.360;6.686;2023-06-19T06:51:56;21.10;99.90
42663;DHT22;44330;51.360;6.686;2023-06-19T06:54:21;21.10;1.00
42663;DHT22;44330;51.360;6.686;2023-06-19T06:56:47;21.10;1.00
42663;DHT22;44330;51.360;6.686;2023-06-19T06:59:13;21.10;98.20
42663;DHT22;44330;51.360;6.686;2023-06-19T07:01:43;21.00;1.00
42663;DHT22;44330;51.360;6.686;2023-06-19T07:04:09;21.00;99.90
42663;DHT22;44330;51.360;6.686;2023-06-19T07:06:37;20.90;99.90
42663;DHT22;44330;51.360;6.686;2023-06-19T07:09:05;21.00;55.10
42663;DHT22;44330;51.360;6.686;2023-06-19T07:11:31;20.90;49.60
42663;DHT22;44330;51.360;6.686;2023-06-19T07:13:56;21.10;1.00
42663;DHT22;44330;51.360;6.686;2023-06-19T07:16:21;21.10;99.90
42663;DHT22;44330;51.360;6.686;2023-06-19T07:18:47;21.20;1.00
42663;DHT22;44330;51.360;6.686;2023-06-19T07:21:13;21.30;1.00
42663;DHT22;44330;51.360;6.686;2023-06-19T07:23:42;21.40;99.90
42663;DHT22;44330;51.360;6.686;2023-06-19T07:26:09;21.40;1.00
42663;DHT22;44330;51.360;6.686;2023-06-19T07:28:34;21.60;54.70
42663;DHT22;44330;51.360;6.686;2023-06-19T07:31:02;21.60;82.50
42663;DHT22;44330;51.360;6.686;2023-06-19T07:33:27;21.60;99.90
42663;DHT22;44330;51.360;6.686;2023-06-19T07:35:53;21.50;99.90
42663;DHT22;44330;51.360;6.686;2023-06-19T07:38:18;21.30;99.90
42663;DHT22;44330;51.360;6.686;2023-06-19T07:40:44;21.30;83.20
42663;DHT22;44330;51.360;6.686;2023-06-19T07:43:10;21.30;99.90
42663;DHT22;44330;51.360;6.686;2023-06-19T07:45:35;21.20;1.00
42663;DHT22;44330;51.360;6.686;2023-06-19T07:48:01;21.20;99.90
42663;DHT22;44330;51.360;6.686;2023-06-19T07:50:26;21.20;99.90
42663;DHT22;44330;51.360;6.686;2023-06-19T07:52:52;21.20;99.90
42663;DHT22;44330;51.360;6.686;2023-06-19T07:55:17;21.40;1.00
42663;DHT22;44330;51.360;6.686;2023-06-19T07:57:43;21.50;2.20
42663;DHT22;44330;51.360;6.686;2023-06-19T08:00:09;21.70;43.80
42663;DHT22;44330;51.360;6.686;2023-06-19T08:02:41;22.00;1.00
42663;DHT22;44330;51.360;6.686;2023-06-19T08:05:15;22.40;1.00
42663;DHT22;44330;51.360;6.686;2023-06-19T08:07:41;22.70;99.90
42663;DHT22;44330;51.360;6.686;2023-06-19T08:13:08;23.40;82.70
42663;DHT22;44330;51.360;6.686;2023-06-19T08:15:36;23.60;1.00
42663;DHT22;44330;51.360;6.686;2023-06-19T08:18:02;23.70;99.90
42663;DHT22;44330;51.360;6.686;2023-06-19T08:20:27;23.90;99.90
42663;DHT22;44330;51.360;6.686;2023-06-19T08:22:53;24.10;99.90
42663;DHT22;44330;51.360;6.686;2023-06-19T08:25:18;24.10;99.90
42663;DHT22;44330;51.360;6.686;2023-06-19T08:27:44;24.10;99.90
42663;DHT22;44330;51.360;6.686;2023-06-19T08:30:10;24.20;99.90
42663;DHT22;44330;51.360;6.686;2023-06-19T08:32:36;24.30;99.90
42663;DHT22;44330;51.360;6.686;2023-06-19T08:37:54;24.30;99.90
42663;DHT22;44330;51.360;6.686;2023-06-19T08:40:23;24.10;99.90
42663;DHT22;44330;51.360;6.686;2023-06-19T08:42:57;24.10;99.90
42663;DHT22;44330;51.360;6.686;2023-06-19T08:45:32;24.10;99.90
42663;DHT22;44330;51.360;6.686;2023-06-19T08:47:58;24.10;99.90
42663;DHT22;44330;51.360;6.686;2023-06-19T08:50:25;24.10;99.90
42663;DHT22;44330;51.360;6.686;2023-06-19T08:52:50;24.20;99.90
42663;DHT22;44330;51.360;6.686;2023-06-19T08:55:16;24.10;99.90
42663;DHT22;44330;51.360;6.686;2023-06-19T08:57:41;24.20;99.90
42663;DHT22;44330;51.360;6.686;2023-06-19T09:00:07;24.50;99.90
42663;DHT22;44330;51.360;6.686;2023-06-19T09:02:37;24.60;99.90
42663;DHT22;44330;51.360;6.686;2023-06-19T09:05:21;24.90;92.70
42663;DHT22;44330;51.360;6.686;2023-06-19T09:13:27;25.60;63.00
42663;DHT22;44330;51.360;6.686;2023-06-19T09:15:59;25.70;58.90
42663;DHT22;44330;51.360;6.686;2023-06-19T09:18:25;25.70;68.90
42663;DHT22;44330;51.360;6.686;2023-06-19T09:20:52;25.80;53.80
42663;DHT22;44330;51.360;6.686;2023-06-19T09:23:19;25.90;50.70
42663;DHT22;44330;51.360;6.686;2023-06-19T09:25:46;25.90;46.80
42663;DHT22;44330;51.360;6.686;2023-06-19T09:28:25;25.90;45.50
42663;DHT22;44330;51.360;6.686;2023-06-19T09:31:01;25.80;45.90
42663;DHT22;44330;51.360;6.686;2023-06-19T09:33:28;25.70;45.90
42663;DHT22;44330;51.360;6.686;2023-06-19T09:35:54;25.70;50.00
42663;DHT22;44330;51.360;6.686;2023-06-19T09:38:21;25.90;44.30
42663;DHT22;44330;51.360;6.686;2023-06-19T09:40:47;26.30;40.80
42663;DHT22;44330;51.360;6.686;2023-06-19T09:43:13;26.40;36.40
42663;DHT22;44330;51.360;6.686;2023-06-19T09:45:40;26.30;34.30
42663;DHT22;44330;51.360;6.686;2023-06-19T09:48:06;26.30;33.90
42663;DHT22;44330;51.360;6.686;2023-06-19T09:50:35;26.30;31.40
42663;DHT22;44330;51.360;6.686;2023-06-19T09:53:02;26.30;33.10
42663;DHT22;44330;51.360;6.686;2023-06-19T09:55:29;26.40;34.30
42663;DHT22;44330;51.360;6.686;2023-06-19T09:57:59;26.70;29.80
42663;DHT22;44330;51.360;6.686;2023-06-19T10:00:24;27.20;28.20
42663;DHT22;44330;51.360;6.686;2023-06-19T10:02:56;27.40;28.00
42663;DHT22;44330;51.360;6.686;2023-06-19T10:05:29;27.40;26.20
42663;DHT22;44330;51.360;6.686;2023-06-19T10:07:58;27.50;25.20
42663;DHT22;44330;51.360;6.686;2023-06-19T10:10:26;27.70;21.60
42663;DHT22;44330;51.360;6.686;2023-06-19T10:12:56;27.60;19.80
42663;DHT22;44330;51.360;6.686;2023-06-19T10:15:24;27.40;23.40
42663;DHT22;44330;51.360;6.686;2023-06-19T10:18:00;27.10;20.20
42663;DHT22;44330;51.360;6.686;2023-06-19T10:20:36;27.00;21.90
42663;DHT22;44330;51.360;6.686;2023-06-19T10:23:09;27.30;22.40
42663;DHT22;44330;51.360;6.686;2023-06-19T10:25:38;27.80;21.10
42663;DHT22;44330;51.360;6.686;2023-06-19T10:28:26;28.30;17.30
42663;DHT22;44330;51.360;6.686;2023-06-19T10:30:59;28.50;15.50
42663;DHT22;44330;51.360;6.686;2023-06-19T10:33:41;28.60;15.70
42663;DHT22;44330;51.360;6.686;2023-06-19T10:36:21;28.70;14.40
42663;DHT22;44330;51.360;6.686;2023-06-19T10:38:54;28.90;13.80
42663;DHT22;44330;51.360;6.686;2023-06-19T10:41:23;29.10;12.20
42663;DHT22;44330;51.360;6.686;2023-06-19T10:46:24;29.10;10.50
42663;DHT22;44330;51.360;6.686;2023-06-19T10:48:50;29.20;10.90
42663;DHT22;44330;51.360;6.686;2023-06-19T10:51:27;29.40;9.30
42663;DHT22;44330;51.360;6.686;2023-06-19T10:53:54;29.80;8.70
42663;DHT22;44330;51.360;6.686;2023-06-19T10:56:24;29.70;7.60
42663;DHT22;44330;51.360;6.686;2023-06-19T11:04:31;29.80;7.30
42663;DHT22;44330;51.360;6.686;2023-06-19T11:06:56;30.10;6.40
42663;DHT22;44330;51.360;6.686;2023-06-19T11:09:22;30.30;5.00
42663;DHT22;44330;51.360;6.686;2023-06-19T11:11:48;30.30;4.60
42663;DHT22;44330;51.360;6.686;2023-06-19T11:14:14;30.20;3.90
42663;DHT22;44330;51.360;6.686;2023-06-19T11:16:45;30.10;3.70
42663;DHT22;44330;51.360;6.686;2023-06-19T11:19:15;29.80;4.70
42663;DHT22;44330;51.360;6.686;2023-06-19T11:21:50;30.00;3.50
42663;DHT22;44330;51.360;6.686;2023-06-19T11:24:16;30.20;3.10
42663;DHT22;44330;51.360;6.686;2023-06-19T11:26:44;30.30;2.60
42663;DHT22;44330;51.360;6.686;2023-06-19T11:29:22;30.50;1.20
42663;DHT22;44330;51.360;6.686;2023-06-19T11:31:50;30.60;1.10
42663;DHT22;44330;51.360;6.686;2023-06-19T11:34:20;30.60;1.00
42663;DHT22;44330;51.360;6.686;2023-06-19T11:36:47;30.60;1.00
42663;DHT22;44330;51.360;6.686;2023-06-19T11:39:14;30.60;1.00
42663;DHT22;44330;51.360;6.686;2023-06-19T11:41:41;30.30;1.00
42663;DHT22;44330;51.360;6.686;2023-06-19T11:44:13;30.40;1.00
42663;DHT22;44330;51.360;6.686;2023-06-19T11:46:41;30.50;1.00
42663;DHT22;44330;51.360;6.686;2023-06-19T11:49:14;30.70;1.00
42663;DHT22;44330;51.360;6.686;2023-06-19T11:51:42;30.60;1.00
42663;DHT22;44330;51.360;6.686;2023-06-19T11:54:08;30.60;1.00
42663;DHT22;44330;51.360;6.686;2023-06-19T11:56:37;30.70;1.00
42663;DHT22;44330;51.360;6.686;2023-06-19T11:59:04;30.90;1.00
42663;DHT22;44330;51.360;6.686;2023-06-19T12:01:33;31.00;1.00
42663;DHT22;44330;51.360;6.686;2023-06-19T12:07:07;31.40;1.00
42663;DHT22;44330;51.360;6.686;2023-06-19T12:09:33;31.20;1.00
42663;DHT22;44330;51.360;6.686;2023-06-19T12:11:58;31.10;1.00
42663;DHT22;44330;51.360;6.686;2023-06-19T12:14:25;31.40;1.00
42663;DHT22;44330;51.360;6.686;2023-06-19T12:16:51;31.50;1.00
42663;DHT22;44330;51.360;6.686;2023-06-19T12:19:17;31.50;1.00
42663;DHT22;44330;51.360;6.686;2023-06-19T12:21:42;31.50;1.00
42663;DHT22;44330;51.360;6.686;2023-06-19T12:24:10;31.50;1.00
42663;DHT22;44330;51.360;6.686;2023-06-19T12:26:36;31.30;1.00
42663;DHT22;44330;51.360;6.686;2023-06-19T12:29:02;31.40;1.00
42663;DHT22;44330;51.360;6.686;2023-06-19T12:31:29;31.00;1.00
42663;DHT22;44330;51.360;6.686;2023-06-19T12:33:54;31.10;1.00
42663;DHT22;44330;51.360;6.686;2023-06-19T12:36:20;31.00;1.00
42663;DHT22;44330;51.360;6.686;2023-06-19T12:38:45;31.00;1.00
42663;DHT22;44330;51.360;6.686;2023-06-19T12:41:13;31.00;1.00
42663;DHT22;44330;51.360;6.686;2023-06-19T12:43:38;30.80;1.00
42663;DHT22;44330;51.360;6.686;2023-06-19T12:46:04;30.60;1.00
42663;DHT22;44330;51.360;6.686;2023-06-19T12:48:29;30.60;1.00
42663;DHT22;44330;51.360;6.686;2023-06-19T12:50:55;30.60;1.00
42663;DHT22;44330;51.360;6.686;2023-06-19T12:53:20;30.60;1.00
42663;DHT22;44330;51.360;6.686;2023-06-19T12:55:52;30.60;1.00
42663;DHT22;44330;51.360;6.686;2023-06-19T12:58:17;30.90;1.00
42663;DHT22;44330;51.360;6.686;2023-06-19T13:00:43;31.20;1.00
42663;DHT22;44330;51.360;6.686;2023-06-19T13:03:09;31.40;1.00
42663;DHT22;44330;51.360;6.686;2023-06-19T13:05:44;31.50;1.00
42663;DHT22;44330;51.360;6.686;2023-06-19T13:08:09;31.50;1.00
42663;DHT22;44330;51.360;6.686;2023-06-19T13:10:35;31.80;1.00
42663;DHT22;44330;51.360;6.686;2023-06-19T13:13:01;32.10;1.00
42663;DHT22;44330;51.360;6.686;2023-06-19T13:15:26;32.00;1.00
42663;DHT22;44330;51.360;6.686;2023-06-19T13:17:54;32.20;1.00
42663;DHT22;44330;51.360;6.686;2023-06-19T13:20:22;32.10;1.00
42663;DHT22;44330;51.360;6.686;2023-06-19T13:22:50;32.40;1.00
42663;DHT22;44330;51.360;6.686;2023-06-19T13:25:17;32.50;1.00
42663;DHT22;44330;51.360;6.686;2023-06-19T13:27:42;32.40;1.00
42663;DHT22;44330;51.360;6.686;2023-06-19T13:30:08;32.60;1.00
42663;DHT22;44330;51.360;6.686;2023-06-19T13:32:33;32.70;1.00
42663;DHT22;44330;51.360;6.686;2023-06-19T13:35:02;32.70;1.00
42663;DHT22;44330;51.360;6.686;2023-06-19T13:37:45;32.70;1.00
42663;DHT22;44330;51.360;6.686;2023-06-19T13:40:18;32.80;1.00
42663;DHT22;44330;51.360;6.686;2023-06-19T13:42:47;32.90;1.00
42663;DHT22;44330;51.360;6.686;2023-06-19T13:45:17;32.80;1.00
42663;DHT22;44330;51.360;6.686;2023-06-19T13:50:46;32.60;1.00
42663;DHT22;44330;51.360;6.686;2023-06-19T13:53:12;32.70;1.00
42663;DHT22;44330;51.360;6.686;2023-06-19T13:58:53;32.90;1.00
42663;DHT22;44330;51.360;6.686;2023-06-19T14:14:48;32.80;1.00
42663;DHT22;44330;51.360;6.686;2023-06-19T14:17:17;32.90;1.00
42663;DHT22;44330;51.360;6.686;2023-06-19T14:22:21;32.70;1.00
42663;DHT22;44330;51.360;6.686;2023-06-19T14:24:57;32.50;1.00
42663;DHT22;44330;51.360;6.686;2023-06-19T14:27:27;32.40;1.00
42663;DHT22;44330;51.360;6.686;2023-06-19T14:43:16;32.80;1.00
42663;DHT22;44330;51.360;6.686;2023-06-19T14:45:53;32.20;1.00
42663;DHT22;44330;51.360;6.686;2023-06-19T14:48:36;32.20;1.00
42663;DHT22;44330;51.360;6.686;2023-06-19T15:01:24;33.10;1.00
42663;DHT22;44330;51.360;6.686;2023-06-19T15:03:53;33.10;1.00
42663;DHT22;44330;51.360;6.686;2023-06-19T15:08:54;33.20;1.00
42663;DHT22;44330;51.360;6.686;2023-06-19T15:11:19;33.30;1.00
42663;DHT22;44330;51.360;6.686;2023-06-19T15:13:45;33.30;1.00
42663;DHT22;44330;51.360;6.686;2023-06-19T15:16:10;33.30;1.00
42663;DHT22;44330;51.360;6.686;2023-06-19T15:18:46;33.20;1.00
42663;DHT22;44330;51.360;6.686;2023-06-19T15:21:14;33.20;1.00
42663;DHT22;44330;51.360;6.686;2023-06-19T15:23:39;33.10;1.00
42663;DHT22;44330;51.360;6.686;2023-06-19T15:26:05;33.00;1.00
42663;DHT22;44330;51.360;6.686;2023-06-19T15:28:40;33.00;1.00
42663;DHT22;44330;51.360;6.686;2023-06-19T15:31:16;33.10;1.00
42663;DHT22;44330;51.360;6.686;2023-06-19T15:33:42;33.10;1.00
42663;DHT22;44330;51.360;6.686;2023-06-19T15:36:07;33.00;1.00
42663;DHT22;44330;51.360;6.686;2023-06-19T15:38:45;32.80;1.00
42663;DHT22;44330;51.360;6.686;2023-06-19T15:44:37;32.70;1.00
42663;DHT22;44330;51.360;6.686;2023-06-19T15:47:07;32.60;1.00
42663;DHT22;44330;51.360;6.686;2023-06-19T15:49:34;32.60;1.00
42663;DHT22;44330;51.360;6.686;2023-06-19T15:52:02;32.70;1.00
42663;DHT22;44330;51.360;6.686;2023-06-19T15:54:27;32.80;1.00
42663;DHT22;44330;51.360;6.686;2023-06-19T15:56:53;33.10;1.00
42663;DHT22;44330;51.360;6.686;2023-06-19T15:59:19;33.20;1.00
42663;DHT22;44330;51.360;6.686;2023-06-19T16:01:44;33.20;1.00
42663;DHT22;44330;51.360;6.686;2023-06-19T16:04:10;33.20;1.00
42663;DHT22;44330;51.360;6.686;2023-06-19T16:06:35;33.10;1.00
42663;DHT22;44330;51.360;6.686;2023-06-19T16:09:01;32.90;1.00
42663;DHT22;44330;51.360;6.686;2023-06-19T16:11:27;32.80;1.00
42663;DHT22;44330;51.360;6.686;2023-06-19T16:13:52;32.70;1.00
42663;DHT22;44330;51.360;6.686;2023-06-19T16:16:18;32.60;1.00
42663;DHT22;44330;51.360;6.686;2023-06-19T16:18:43;32.60;1.00
42663;DHT22;44330;51.360;6.686;2023-06-19T16:21:09;32.70;1.00
42663;DHT22;44330;51.360;6.686;2023-06-19T16:23:35;32.60;1.00
42663;DHT22;44330;51.360;6.686;2023-06-19T16:26:01;32.60;1.00
42663;DHT22;44330;51.360;6.686;2023-06-19T16:28:28;32.40;1.00
42663;DHT22;44330;51.360;6.686;2023-06-19T16:30:54;32.30;1.00
42663;DHT22;44330;51.360;6.686;2023-06-19T16:33:20;32.10;1.00
42663;DHT22;44330;51.360;6.686;2023-06-19T16:35:45;31.90;1.00
42663;DHT22;44330;51.360;6.686;2023-06-19T16:38:11;32.00;1.00
42663;DHT22;44330;51.360;6.686;2023-06-19T16:40:36;32.20;1.00
42663;DHT22;44330;51.360;6.686;2023-06-19T16:43:02;32.40;1.00
42663;DHT22;44330;51.360;6.686;2023-06-19T16:45:28;32.30;1.00
42663;DHT22;44330;51.360;6.686;2023-06-19T16:47:54;32.00;1.00
42663;DHT22;44330;51.360;6.686;2023-06-19T16:50:19;31.20;1.00